Time;durP1;ratioP1;P1;durP2;ratioP2;P2;SDS_P1;SDS_P2;PMS_P1;PMS_P2;Temp;Humidity;BMP_temperature;BMP_pressure;BME280_temperature;BME280_humidity;BME280_pressure;Samples;Min_cycle;Max_cycle;Signal;HPM_P1;HPM_P2
2022/03/04 00:01:13;;;;;;;;;61.00;49.00;;;;;11.87;66.95;101383.38;5081453;28;45410;-62
2022/03/04 00:03:38;;;;;;;;;62.75;48.00;;;;;11.91;66.86;101389.31;5081884;28;45407;-62
2022/03/04 00:06:04;;;;;;;;;65.25;48.25;;;;;11.93;67.02;101390.94;5081967;28;45575;-62
2022/03/04 00:08:30;;;;;;;;;65.50;50.00;;;;;11.95;66.93;101398.78;5081525;27;45327;-62
2022/03/04 00:10:55;;;;;;;;;67.25;48.75;;;;;11.98;67.07;101394.19;5081702;28;45325;-62
2022/03/04 00:13:21;;;;;;;;;59.25;48.75;;;;;11.98;67.08;101395.97;5081774;27;45245;-62
2022/03/04 00:15:46;;;;;;;;;66.50;51.75;;;;;11.97;66.90;101387.19;5081498;28;45228;-62
2022/03/04 00:18:12;;;;;;;;;69.00;50.75;;;;;11.97;66.98;101391.63;5081285;27;45984;-62
2022/03/04 00:20:37;;;;;;;;;67.25;52.00;;;;;11.95;66.99;101383.78;5081469;28;45228;-62
2022/03/04 00:23:03;;;;;;;;;67.50;50.25;;;;;11.95;66.90;101390.88;5081636;28;45208;-62
2022/03/04 00:25:29;;;;;;;;;64.00;51.50;;;;;11.97;67.11;101389.84;5081694;28;45175;-62
2022/03/04 00:27:54;;;;;;;;;69.00;52.50;;;;;11.97;67.01;101392.47;5081335;27;45887;-62
2022/03/04 00:30:20;;;;;;;;;69.25;51.50;;;;;11.98;67.08;101388.91;5081309;28;45244;-62
2022/03/04 00:32:45;;;;;;;;;68.33;53.00;;;;;12.00;66.86;101394.09;5081102;28;45491;-62
2022/03/04 00:35:12;;;;;;;;;65.50;51.00;;;;;12.04;67.34;101397.44;5089923;27;45228;-62
2022/03/04 00:37:38;;;;;;;;;70.75;52.25;;;;;12.07;66.98;101391.97;5080829;27;45379;-61
2022/03/04 00:40:05;;;;;;;;;71.75;55.00;;;;;12.10;67.22;101391.81;5084639;27;45329;-62
2022/03/04 00:42:30;;;;;;;;;67.50;51.00;;;;;12.13;67.06;101391.63;5098466;27;45597;-62
2022/03/04 00:44:56;;;;;;;;;72.00;53.75;;;;;12.12;66.93;101388.16;5081779;27;45273;-62
2022/03/04 00:47:22;;;;;;;;;73.67;53.33;;;;;12.11;66.99;101378.53;5080358;28;46278;-62
2022/03/04 00:49:47;;;;;;;;;66.67;51.67;;;;;12.12;67.07;101384.66;5081304;28;45161;-62
2022/03/04 00:52:13;;;;;;;;;71.00;53.50;;;;;12.12;67.19;101380.22;5082600;28;45232;-62
2022/03/04 00:54:38;;;;;;;;;73.25;57.75;;;;;12.09;67.10;101376.91;5085262;27;45246;-62
2022/03/04 00:57:04;;;;;;;;;74.50;54.00;;;;;12.07;67.40;101381.41;5084428;27;46020;-61
2022/03/04 00:59:30;;;;;;;;;66.00;53.00;;;;;12.07;67.51;101387.53;5084843;27;45259;-61
2022/03/04 01:01:55;;;;;;;;;69.75;54.50;;;;;12.08;67.11;101388.38;5084407;27;45378;-61
2022/03/04 01:04:21;;;;;;;;;77.25;55.75;;;;;12.09;67.11;101376.91;5085009;27;45209;-62
2022/03/04 01:06:47;;;;;;;;;72.67;56.00;;;;;12.11;67.32;101382.97;5084407;27;45905;-63
2022/03/04 01:09:13;;;;;;;;;73.00;54.00;;;;;12.10;67.09;101383.91;5084651;28;45449;-62
2022/03/04 01:11:38;;;;;;;;;64.75;50.75;;;;;12.10;67.46;101383.91;5086420;27;45318;-61
2022/03/04 01:14:05;;;;;;;;;73.67;55.00;;;;;12.04;67.29;101385.06;5096656;27;45477;-62
2022/03/04 01:16:31;;;;;;;;;74.33;54.00;;;;;12.02;67.32;101381.69;5099530;27;45434;-62
2022/03/04 01:18:56;;;;;;;;;52.33;39.33;;;;;12.01;67.33;101394.03;5105118;27;45325;-62
2022/03/04 01:21:22;;;;;;;;;66.67;51.67;;;;;12.01;67.19;101386.09;5104896;27;45227;-62
2022/03/04 01:23:47;;;;;;;;;64.75;50.75;;;;;12.02;67.40;101389.59;5105016;27;45243;-62
2022/03/04 01:26:13;;;;;;;;;66.33;55.00;;;;;12.02;67.40;101387.81;5104628;27;45598;-62
2022/03/04 01:28:39;;;;;;;;;72.67;53.67;;;;;12.01;67.42;101379.97;5104804;27;45288;-62
2022/03/04 01:31:04;;;;;;;;;67.00;52.67;;;;;12.00;67.20;101381.72;5104360;27;45162;-62
2022/03/04 01:33:30;;;;;;;;;79.00;55.00;;;;;12.02;67.34;101389.59;5104950;27;45335;-62
2022/03/04 01:35:55;;;;;;;;;66.50;53.00;;;;;12.01;67.60;101387.91;5089580;27;46202;-62
2022/03/04 01:38:21;;;;;;;;;73.67;56.00;;;;;12.02;67.45;101389.59;5084196;27;45291;-62
2022/03/04 01:40:47;;;;;;;;;70.67;53.67;;;;;12.02;67.29;101384.31;5092258;27;45315;-63
2022/03/04 01:43:12;;;;;;;;;73.33;55.33;;;;;11.99;67.52;101385.31;5096527;27;45646;-62
2022/03/04 01:45:38;;;;;;;;;71.67;54.67;;;;;11.94;67.26;101379.47;5082397;27;47693;-62
2022/03/04 01:48:04;;;;;;;;;79.33;59.67;;;;;11.93;67.41;101392.75;5083697;28;45374;-62
2022/03/04 01:50:29;;;;;;;;;71.00;55.67;;;;;11.89;67.68;101383.28;5084010;27;45212;-61
2022/03/04 01:52:55;;;;;;;;;71.00;53.67;;;;;11.84;67.48;101378.22;5082795;28;45365;-62
2022/03/04 01:55:20;;;;;;;;;71.67;53.67;;;;;11.80;67.56;101379.34;5078810;27;46914;-62
2022/03/04 01:57:46;;;;;;;;;72.33;55.67;;;;;11.75;67.56;101376.91;5084003;27;45301;-61
2022/03/04 02:00:13;;;;;;;;;73.00;56.67;;;;;11.71;67.68;101378.03;5083768;28;45233;-62
2022/03/04 02:02:40;;;;;;;;;81.00;56.50;;;;;11.67;67.89;101372.97;5083582;28;45632;-61
2022/03/04 02:05:06;;;;;;;;;72.67;54.67;;;;;11.62;67.72;101372.41;5082794;27;45476;-62
2022/03/04 02:07:31;;;;;;;;;71.00;53.67;;;;;11.56;68.04;101360.38;5083819;28;45315;-63
2022/03/04 02:09:58;;;;;;;;;69.33;54.67;;;;;11.49;67.61;101358.13;5083800;27;45288;-63
2022/03/04 02:12:23;;;;;;;;;73.33;56.33;;;;;11.40;68.42;101370.03;5084053;28;45279;-62
2022/03/04 02:14:49;;;;;;;;;73.67;56.67;;;;;11.35;68.57;101370.25;5083332;27;45395;-62
2022/03/04 02:17:14;;;;;;;;;67.33;51.00;;;;;11.31;68.67;101362.59;5083372;28;45372;-62
2022/03/04 02:19:40;;;;;;;;;76.00;56.00;;;;;11.26;68.43;101362.84;5083406;28;45415;-62
2022/03/04 02:22:07;;;;;;;;;74.33;57.00;;;;;11.21;68.58;101364.00;5083568;28;45530;-62
2022/03/04 02:24:33;;;;;;;;;72.33;54.67;;;;;11.17;68.88;101363.31;5083096;27;45411;-62
2022/03/04 02:27:01;;;;;;;;;73.25;55.75;;;;;11.12;68.83;101363.53;5073709;27;45200;-62
2022/03/04 02:29:31;;;;;;;;;73.00;55.00;;;;;11.09;68.91;101360.22;5087904;27;45345;-62
2022/03/04 02:31:56;;;;;;;;;71.75;56.00;;;;;11.05;68.98;101359.50;5083063;28;45323;-62
2022/03/04 02:34:22;;;;;;;;;76.25;55.75;;;;;11.01;68.97;101355.34;5091031;27;45328;-62
2022/03/04 02:36:48;;;;;;;;;67.75;52.25;;;;;10.99;69.01;101359.84;5083283;28;45247;-62
2022/03/04 02:39:14;;;;;;;;;77.67;58.67;;;;;10.97;68.97;101363.47;5085017;27;45474;-61
2022/03/04 02:41:40;;;;;;;;;75.67;58.33;;;;;10.94;69.58;101361.00;5095444;27;45404;-63
2022/03/04 02:44:10;;;;;;;;;73.67;55.00;;;;;10.90;69.27;101362.94;5087547;27;45240;-62
2022/03/04 02:46:36;;;;;;;;;73.33;56.00;;;;;10.87;69.20;101358.69;5082587;27;45338;-61
2022/03/04 02:49:05;;;;;;;;;75.33;57.00;;;;;10.84;69.29;101355.34;5082768;27;45487;-62
2022/03/04 02:51:31;;;;;;;;;67.67;52.67;;;;;10.83;69.31;101357.13;5083244;27;45219;-62
2022/03/04 02:53:56;;;;;;;;;76.00;57.00;;;;;10.80;69.71;101357.28;5082746;28;45303;-63
2022/03/04 02:56:22;;;;;;;;;68.00;56.00;;;;;10.80;69.84;101357.28;5082967;27;45443;-62
2022/03/04 02:58:47;;;;;;;;;77.33;55.00;;;;;10.80;69.77;101359.91;5082931;27;45351;-62
2022/03/04 03:01:13;;;;;;;;;72.00;55.67;;;;;10.80;69.32;101362.53;5082666;27;45469;-62
2022/03/04 03:03:39;;;;;;;;;75.00;56.33;;;;;10.82;69.83;101370.38;5082510;27;45414;-62
2022/03/04 03:06:05;;;;;;;;;74.33;55.67;;;;;10.81;69.29;101366.03;5082832;27;45427;-62
2022/03/04 03:08:31;;;;;;;;;68.00;54.00;;;;;10.83;69.63;101367.69;5082705;27;45360;-62
2022/03/04 03:10:56;;;;;;;;;71.67;56.00;;;;;10.84;69.37;101358.84;5082957;28;45309;-64
2022/03/04 03:13:22;;;;;;;;;69.00;52.75;;;;;10.86;69.81;101367.50;5099118;27;45913;-63
2022/03/04 03:15:49;;;;;;;;;63.50;49.75;;;;;10.87;69.70;101363.94;5101500;27;45375;-62
2022/03/04 03:18:16;;;;;;;;;68.33;53.33;;;;;10.86;69.64;101364.88;5054076;27;45201;-62
2022/03/04 03:20:41;;;;;;;;;73.00;53.25;;;;;10.88;69.45;101364.78;5074662;28;45244;-62
2022/03/04 03:23:07;;;;;;;;;64.25;48.25;;;;;10.87;69.42;101363.94;5063944;28;45366;-62
2022/03/04 03:25:33;;;;;;;;;55.75;47.00;;;;;10.89;69.07;101371.78;5092822;27;45314;-62
2022/03/04 03:27:59;;;;;;;;;67.50;50.75;;;;;10.92;69.17;101368.16;5102795;27;45256;-62
2022/03/04 03:30:25;;;;;;;;;60.75;48.00;;;;;10.94;68.97;101366.28;5103114;27;45269;-62
2022/03/04 03:32:50;;;;;;;;;63.25;50.00;;;;;10.97;69.06;101366.97;5102281;27;46004;-62
2022/03/04 03:35:16;;;;;;;;;60.75;46.50;;;;;10.99;69.41;101378.31;5092809;27;45339;-62
2022/03/04 03:37:41;;;;;;;;;65.25;46.75;;;;;10.98;69.16;101381.88;5082330;27;45572;-62
2022/03/04 03:40:10;;;;;;;;;58.50;48.50;;;;;10.99;69.16;101380.09;5085303;27;45312;-63
2022/03/04 03:42:36;;;;;;;;;35.50;28.50;;;;;10.99;68.77;101377.44;5102016;27;47003;-62
2022/03/04 03:45:05;;;;;;;;;58.00;46.75;;;;;10.97;68.78;101374.88;5102742;27;45633;-62
2022/03/04 03:47:32;;;;;;;;;58.25;45.50;;;;;10.97;68.67;101377.50;5102094;27;45339;-62
2022/03/04 03:49:57;;;;;;;;;61.00;47.00;;;;;11.00;68.69;101387.06;5102754;27;45278;-62
2022/03/04 03:52:23;;;;;;;;;53.50;42.00;;;;;11.00;68.62;101379.16;5100996;27;46742;-62
2022/03/04 03:54:49;;;;;;;;;57.25;43.25;;;;;11.00;68.70;101381.78;5102502;27;45169;-62
2022/03/04 03:57:14;;;;;;;;;62.00;46.50;;;;;10.99;68.53;101374.81;5102391;27;45413;-62
2022/03/04 03:59:40;;;;;;;;;56.50;43.75;;;;;11.02;68.97;101380.78;5102605;27;45209;-62
2022/03/04 04:02:05;;;;;;;;;56.50;45.50;;;;;11.05;68.64;101388.50;5101746;27;45299;-62
2022/03/04 04:04:34;;;;;;;;;58.25;45.25;;;;;11.06;68.82;101384.09;5102270;27;45224;-62
2022/03/04 04:07:05;;;;;;;;;57.50;45.25;;;;;11.07;68.83;101378.75;5102169;27;45396;-62
2022/03/04 04:09:31;;;;;;;;;63.50;50.00;;;;;11.07;68.32;101383.19;5102563;27;45267;-62
2022/03/04 04:11:58;;;;;;;;;61.00;47.50;;;;;11.07;68.66;101383.19;5102054;27;45484;-62
2022/03/04 04:14:24;;;;;;;;;67.50;50.75;;;;;11.06;68.60;101394.63;5102306;27;45536;-62
2022/03/04 04:16:50;;;;;;;;;60.75;47.50;;;;;11.06;68.60;101399.91;5101652;27;45337;-61
2022/03/04 04:19:15;;;;;;;;;63.00;50.50;;;;;11.06;68.46;101399.91;5102384;27;45431;-62
2022/03/04 04:21:41;;;;;;;;;60.00;46.50;;;;;11.07;68.66;101399.84;5101795;27;45334;-62
2022/03/04 04:24:07;;;;;;;;;65.25;47.25;;;;;11.04;68.72;101396.50;5102107;27;45354;-62
2022/03/04 04:26:32;;;;;;;;;63.50;48.25;;;;;11.03;68.46;101398.28;5101616;27;45219;-62
2022/03/04 04:28:58;;;;;;;;;67.75;50.75;;;;;11.04;68.79;101388.59;5102156;27;45236;-62
2022/03/04 04:31:24;;;;;;;;;55.00;45.75;;;;;11.04;68.44;101405.25;5101186;27;45230;-62
2022/03/04 04:33:50;;;;;;;;;64.25;49.25;;;;;11.04;68.70;101400.00;5101920;27;45359;-62
2022/03/04 04:36:17;;;;;;;;;64.50;51.00;;;;;11.04;68.64;101405.25;5084343;27;45233;-62
2022/03/04 04:38:43;;;;;;;;;72.50;54.25;;;;;11.06;68.85;101405.19;5081978;27;45343;-62
2022/03/04 04:41:09;;;;;;;;;65.75;49.25;;;;;11.06;68.86;101405.19;5091639;27;46422;-62
2022/03/04 04:43:35;;;;;;;;;65.75;51.00;;;;;11.06;68.66;101402.53;5072117;28;45257;-62
2022/03/04 04:46:02;;;;;;;;;68.50;51.75;;;;;11.07;69.01;101399.00;5080924;28;45569;-62
2022/03/04 04:48:27;;;;;;;;;66.00;52.00;;;;;11.08;69.16;101406.84;5081513;28;45333;-62
2022/03/04 04:50:54;;;;;;;;;71.50;47.75;;;;;11.10;68.70;101402.31;5080942;28;45475;-62
2022/03/04 04:53:20;;;;;;;;;69.00;52.25;;;;;11.08;68.46;101398.91;5081283;28;45266;-62
2022/03/04 04:55:46;;;;;;;;;63.50;44.25;;;;;11.06;69.10;101407.81;5081060;28;45255;-62
2022/03/04 04:58:11;;;;;;;;;67.75;52.00;;;;;11.05;69.02;101408.75;5081276;28;45485;-62
2022/03/04 05:00:37;;;;;;;;;64.50;50.75;;;;;11.07;69.00;101413.03;5080822;27;45294;-62
2022/03/04 05:03:02;;;;;;;;;64.00;48.75;;;;;11.11;68.80;101411.09;5080720;28;45317;-62
2022/03/04 05:05:28;;;;;;;;;70.75;52.25;;;;;11.14;68.95;101408.31;5081044;28;45303;-62
2022/03/04 05:07:53;;;;;;;;;64.75;47.25;;;;;11.14;68.75;101405.69;5081287;27;45264;-62
2022/03/04 05:10:19;;;;;;;;;67.25;51.75;;;;;11.12;68.67;101413.63;5062549;28;47174;-62
2022/03/04 05:12:45;;;;;;;;;59.50;47.50;;;;;11.09;68.87;101411.16;5080900;28;45253;-63
2022/03/04 05:15:10;;;;;;;;;62.75;50.00;;;;;11.06;68.57;101416.59;5080921;28;45381;-62
2022/03/04 05:17:36;;;;;;;;;67.00;52.25;;;;;11.07;69.33;101417.47;5080687;27;45318;-62
2022/03/04 05:20:03;;;;;;;;;65.25;50.50;;;;;11.08;68.82;101417.38;5080663;27;46078;-63
2022/03/04 05:22:28;;;;;;;;;66.00;51.67;;;;;11.10;68.95;101415.50;5073179;27;45283;-63
2022/03/04 05:24:54;;;;;;;;;65.25;50.50;;;;;11.13;68.69;101415.34;5083630;27;45223;-62
2022/03/04 05:27:19;;;;;;;;;66.00;51.00;;;;;11.14;68.86;101416.22;5081061;27;45351;-62
2022/03/04 05:29:45;;;;;;;;;61.25;49.25;;;;;11.16;68.89;101417.84;5080494;28;45323;-62
2022/03/04 05:32:10;;;;;;;;;67.50;48.25;;;;;11.18;69.22;101423.03;5080407;28;45253;-62
2022/03/04 05:34:37;;;;;;;;;65.50;48.25;;;;;11.18;68.74;101420.41;5071309;28;45461;-62
2022/03/04 05:37:04;;;;;;;;;65.50;49.50;;;;;11.16;68.82;101423.13;5080601;28;45413;-62
2022/03/04 05:39:29;;;;;;;;;68.25;51.75;;;;;11.19;68.70;101419.47;5084876;27;46139;-62
2022/03/04 05:41:55;;;;;;;;;67.00;51.75;;;;;11.21;68.88;101428.13;5098496;27;45279;-62
2022/03/04 05:44:21;;;;;;;;;71.00;52.50;;;;;11.25;68.87;101419.16;5086516;27;45476;-62
2022/03/04 05:46:46;;;;;;;;;70.00;49.50;;;;;11.25;69.05;101421.78;5083938;27;45584;-62
2022/03/04 05:49:12;;;;;;;;;63.75;51.50;;;;;11.27;69.17;101416.44;5083427;27;45985;-62
2022/03/04 05:51:37;;;;;;;;;57.00;48.50;;;;;11.26;69.02;101423.50;5083750;27;45236;-63
2022/03/04 05:54:03;;;;;;;;;65.50;52.00;;;;;11.26;68.89;101417.38;5083920;28;45197;-62
2022/03/04 05:56:28;;;;;;;;;68.25;52.25;;;;;11.27;68.39;101426.97;5084039;27;45290;-62
2022/03/04 05:58:54;;;;;;;;;65.00;50.75;;;;;11.28;68.73;101420.78;5083624;27;45420;-62
2022/03/04 06:01:19;;;;;;;;;66.75;51.00;;;;;11.28;69.00;101418.97;5083492;28;45333;-62
2022/03/04 06:03:45;;;;;;;;;66.75;51.75;;;;;11.31;69.00;101424.13;5083833;27;45436;-62
2022/03/04 06:06:12;;;;;;;;;76.75;54.75;;;;;11.29;68.65;101420.69;5083930;28;45149;-62
2022/03/04 06:08:38;;;;;;;;;61.75;49.25;;;;;11.31;68.52;101426.75;5083459;27;45511;-62
2022/03/04 06:11:05;;;;;;;;;62.00;49.50;;;;;11.31;69.02;101425.91;5083437;28;45311;-62
2022/03/04 06:13:31;;;;;;;;;69.00;51.75;;;;;11.34;68.92;101437.13;5083545;27;45278;-62
2022/03/04 06:15:56;;;;;;;;;64.75;50.00;;;;;11.36;68.81;101440.53;5083263;28;45616;-62
2022/03/04 06:18:21;;;;;;;;;68.00;52.00;;;;;11.37;68.58;101439.59;5083378;27;45234;-63
2022/03/04 06:20:47;;;;;;;;;71.00;51.50;;;;;11.38;68.58;101446.63;5083512;27;45286;-63
2022/03/04 06:23:13;;;;;;;;;68.75;52.25;;;;;11.40;68.87;101451.81;5083322;27;45248;-63
2022/03/04 06:25:39;;;;;;;;;66.25;50.00;;;;;11.41;68.75;101451.72;5083582;28;45216;-63
2022/03/04 06:28:05;;;;;;;;;64.75;51.25;;;;;11.44;68.72;101451.56;5083165;28;45266;-63
2022/03/04 06:30:34;;;;;;;;;71.00;51.00;;;;;11.45;68.76;101452.41;5083320;28;45208;-63
2022/03/04 06:35:45;;;;;;;;;64.75;50.00;;;;;11.46;68.71;101451.50;5083434;27;45327;-61
2022/03/04 06:38:11;;;;;;;;;67.75;52.50;;;;;11.46;68.32;101455.00;5083003;27;46170;-63
2022/03/04 06:40:37;;;;;;;;;72.25;54.50;;;;;11.48;68.86;101454.06;5089891;27;45478;-63
2022/03/04 06:43:05;;;;;;;;;74.33;54.67;;;;;11.49;68.34;101459.25;5083266;27;45256;-63
2022/03/04 06:45:31;;;;;;;;;67.75;52.50;;;;;11.51;68.42;101461.81;5083044;27;45531;-63
2022/03/04 06:47:57;;;;;;;;;64.25;51.00;;;;;11.52;68.46;101466.13;5082460;27;46102;-63
2022/03/04 06:50:22;;;;;;;;;71.25;49.75;;;;;11.54;68.12;101474.84;5082746;27;45270;-63
2022/03/04 06:52:48;;;;;;;;;69.25;49.25;;;;;11.57;68.02;101477.31;5083072;28;45316;-63
2022/03/04 06:55:14;;;;;;;;;68.25;51.00;;;;;11.61;67.96;101485.00;5082830;28;45510;-63
2022/03/04 06:57:39;;;;;;;;;71.75;52.00;;;;;11.63;67.91;101482.28;5082617;28;45347;-63
2022/03/04 07:00:10;;;;;;;;;67.50;51.50;;;;;11.66;67.87;101485.59;5082838;28;45249;-63
2022/03/04 07:02:37;;;;;;;;;68.50;53.25;;;;;11.71;67.74;101485.38;5065387;28;45480;-63
2022/03/04 07:05:06;;;;;;;;;63.50;48.00;;;;;11.74;67.65;101490.50;5082706;27;45260;-63
2022/03/04 07:07:31;;;;;;;;;71.75;51.25;;;;;11.73;67.68;101487.00;5082629;27;46287;-63
2022/03/04 07:09:57;;;;;;;;;70.50;52.75;;;;;11.79;67.67;101488.47;5082634;28;45392;-63
2022/03/04 07:12:23;;;;;;;;;65.00;51.00;;;;;11.80;67.57;101500.78;5082868;27;45243;-64
2022/03/04 07:14:48;;;;;;;;;66.25;50.00;;;;;11.81;67.33;101498.97;5082571;28;45463;-64
2022/03/04 07:17:14;;;;;;;;;69.00;50.75;;;;;11.82;67.49;101503.31;5082311;28;45287;-63
2022/03/04 07:19:40;;;;;;;;;64.25;48.25;;;;;11.84;67.32;101506.72;5082322;28;45362;-64
2022/03/04 07:22:06;;;;;;;;;66.25;50.50;;;;;11.86;67.56;101500.47;5082750;28;45172;-63
2022/03/04 07:24:31;;;;;;;;;71.50;53.75;;;;;11.92;67.51;101513.31;5082483;28;45581;-63
2022/03/04 07:26:58;;;;;;;;;72.00;51.67;;;;;11.95;67.49;101512.31;5082346;27;45548;-63
2022/03/04 07:29:24;;;;;;;;;60.75;48.25;;;;;11.96;67.09;101517.50;5082220;27;45313;-63
2022/03/04 07:31:53;;;;;;;;;72.75;52.75;;;;;11.94;67.13;101513.25;5082268;27;45373;-63
2022/03/04 07:34:19;;;;;;;;;68.00;50.75;;;;;11.95;67.17;101512.31;5091555;27;45656;-63
2022/03/04 07:36:44;;;;;;;;;67.00;48.25;;;;;11.95;66.68;101518.44;5082213;27;46015;-63
2022/03/04 07:39:10;;;;;;;;;67.25;51.25;;;;;11.94;67.01;101524.66;5085608;27;45409;-63
2022/03/04 07:41:36;;;;;;;;;65.75;50.00;;;;;11.98;66.90;101522.72;5094141;27;45349;-63
2022/03/04 07:44:01;;;;;;;;;66.50;52.00;;;;;11.97;67.04;101524.50;5087402;27;45553;-63
2022/03/04 07:46:27;;;;;;;;;68.00;50.50;;;;;11.97;66.86;101524.50;5081998;28;46017;-63
2022/03/04 07:48:52;;;;;;;;;67.33;53.00;;;;;11.94;66.93;101529.94;5081670;27;45317;-63
2022/03/04 07:51:18;;;;;;;;;66.33;52.33;;;;;11.96;66.92;101532.50;5082235;28;45370;-63
2022/03/04 07:53:43;;;;;;;;;73.00;54.67;;;;;11.99;66.88;101535.81;5082005;27;45520;-63
2022/03/04 07:56:10;;;;;;;;;70.67;54.00;;;;;12.04;66.98;101535.59;5063449;28;47831;-63
2022/03/04 07:58:35;;;;;;;;;79.67;60.00;;;;;12.08;67.05;101528.34;5081711;27;45276;-63
2022/03/04 08:01:01;;;;;;;;;73.67;53.33;;;;;12.11;66.73;101529.06;5081121;28;45433;-63
2022/03/04 08:03:26;;;;;;;;;66.67;51.67;;;;;12.11;66.47;101528.22;5081508;28;45370;-63
2022/03/04 08:05:52;;;;;;;;;74.33;58.00;;;;;12.16;66.91;101534.06;5081880;28;46230;-64
2022/03/04 08:08:17;;;;;;;;;82.00;62.00;;;;;12.23;66.64;101538.09;5081607;28;45130;-63
2022/03/04 08:10:43;;;;;;;;;74.00;53.33;;;;;12.29;66.67;101538.63;5081768;27;45554;-63
2022/03/04 08:13:08;;;;;;;;;74.67;54.67;;;;;12.32;66.33;101529.69;5081830;27;45141;-64
2022/03/04 08:15:34;;;;;;;;;66.33;53.33;;;;;12.37;65.97;101546.16;5081528;28;46169;-63
2022/03/04 08:17:59;;;;;;;;;67.00;50.75;;;;;12.37;65.56;101547.94;5081400;27;45228;-64
2022/03/04 08:20:26;;;;;;;;;69.67;51.00;;;;;12.33;65.55;101547.25;5081727;27;45300;-64
2022/03/04 08:22:53;;;;;;;;;66.75;53.25;;;;;12.33;65.70;101546.41;5076801;27;45257;-63
2022/03/04 08:25:18;;;;;;;;;64.25;51.00;;;;;12.39;65.74;101551.34;5081408;28;46468;-63
2022/03/04 08:27:44;;;;;;;;;66.75;48.25;;;;;12.48;65.39;101553.47;5081340;27;45316;-63
2022/03/04 08:30:12;;;;;;;;;72.00;54.75;;;;;12.56;65.13;101556.59;5081622;27;45329;-63
2022/03/04 08:32:38;;;;;;;;;60.50;48.25;;;;;12.62;65.14;101553.59;5081069;27;45588;-61
2022/03/04 08:35:04;;;;;;;;;69.33;53.33;;;;;12.67;64.63;101550.72;5089315;27;45292;-63
2022/03/04 08:37:30;;;;;;;;;74.00;58.00;;;;;12.69;64.64;101552.31;5081103;28;45235;-63
2022/03/04 08:39:56;;;;;;;;;128.50;116.25;;;;;12.75;64.70;101561.72;5083478;27;45233;-63
2022/03/04 08:42:22;;;;;;;;;64.00;50.50;;;;;12.80;64.54;101563.19;5098301;27;45154;-62
2022/03/04 08:44:47;;;;;;;;;63.00;50.75;;;;;12.86;64.10;101564.59;5081253;27;45881;-63
2022/03/04 08:47:13;;;;;;;;;63.25;50.25;;;;;12.84;63.54;101559.41;5080304;27;45274;-63
2022/03/04 08:49:38;;;;;;;;;59.25;47.50;;;;;12.83;63.37;101556.84;5081368;28;45275;-62
2022/03/04 08:52:06;;;;;;;;;69.50;51.00;;;;;12.86;63.73;101561.97;5081144;27;45395;-61
2022/03/04 08:54:32;;;;;;;;;70.00;54.67;;;;;12.92;63.86;101561.63;5081183;28;45413;-62
2022/03/04 08:56:57;;;;;;;;;70.00;52.25;;;;;13.00;63.50;101564.69;5081007;28;45264;-62
2022/03/04 08:59:23;;;;;;;;;66.75;50.50;;;;;13.05;63.21;101567.09;5081140;28;45224;-63
2022/03/04 09:01:48;;;;;;;;;63.50;49.75;;;;;13.07;63.07;101562.56;5080786;27;45374;-62
2022/03/04 09:04:17;;;;;;;;;68.75;51.25;;;;;13.12;62.95;101566.66;5080967;28;45233;-63
2022/03/04 09:06:43;;;;;;;;;69.00;53.50;;;;;13.16;62.81;101572.63;5080955;27;45374;-63
2022/03/04 09:09:08;;;;;;;;;65.25;50.50;;;;;13.17;62.71;101573.47;5081073;27;45279;-63
2022/03/04 09:11:34;;;;;;;;;63.50;48.75;;;;;13.21;62.77;101575.03;5080951;28;45276;-63
2022/03/04 09:14:01;;;;;;;;;68.75;51.50;;;;;13.23;62.46;101574.00;5081801;27;45426;-63
2022/03/04 09:16:28;;;;;;;;;65.75;51.00;;;;;13.32;62.44;101567.34;5083793;27;45364;-63
2022/03/04 09:18:53;;;;;;;;;65.25;49.75;;;;;13.37;62.25;101562.63;5084734;28;45355;-63
2022/03/04 09:21:19;;;;;;;;;71.75;52.25;;;;;13.45;62.23;101565.69;5084386;28;45401;-63
2022/03/04 09:23:44;;;;;;;;;70.00;51.25;;;;;13.48;61.86;101570.81;5084384;28;45405;-63
2022/03/04 09:26:10;;;;;;;;;64.50;50.50;;;;;13.53;61.64;101576.69;5084319;27;45257;-63
2022/03/04 09:28:35;;;;;;;;;61.50;49.50;;;;;13.53;61.87;101565.25;5084490;28;45399;-63
2022/03/04 09:31:01;;;;;;;;;70.50;51.00;;;;;13.54;61.55;101569.59;5083929;27;45433;-63
2022/03/04 09:33:27;;;;;;;;;67.50;52.00;;;;;13.60;61.46;101574.53;5086919;27;45972;-63
2022/03/04 09:35:52;;;;;;;;;69.00;50.75;;;;;13.63;61.40;101572.56;5089551;27;45695;-63
2022/03/04 09:38:18;;;;;;;;;60.75;48.00;;;;;13.62;61.38;101564.72;5084194;28;45393;-63
2022/03/04 09:40:44;;;;;;;;;68.75;52.00;;;;;13.68;61.60;101580.25;5091643;27;45272;-63
2022/03/04 09:43:09;;;;;;;;;86.33;69.33;;;;;13.71;61.16;101572.09;5096759;27;46646;-63
2022/03/04 09:45:35;;;;;;;;;72.75;52.50;;;;;13.74;61.09;101571.91;5083623;27;45339;-63
2022/03/04 09:48:04;;;;;;;;;71.67;56.00;;;;;13.73;61.15;101570.22;5084021;27;45246;-63
2022/03/04 09:50:32;;;;;;;;;65.25;50.50;;;;;13.77;61.36;101573.53;5084119;27;45504;-63
2022/03/04 09:52:58;;;;;;;;;68.75;52.00;;;;;13.80;60.81;101566.25;5084004;28;46308;-63
2022/03/04 09:55:24;;;;;;;;;73.00;55.50;;;;;13.83;61.09;101575.84;5083743;28;45283;-63
2022/03/04 09:57:49;;;;;;;;;67.75;52.00;;;;;13.88;61.20;101579.88;5084360;28;45467;-63
2022/03/04 10:00:15;;;;;;;;;72.33;50.00;;;;;13.94;60.64;101576.03;5083896;27;45573;-63
2022/03/04 10:02:41;;;;;;;;;70.00;51.00;;;;;13.96;60.61;101572.34;5083360;27;45349;-63
2022/03/04 10:05:08;;;;;;;;;63.75;51.75;;;;;14.01;60.77;101573.88;5083580;27;45370;-63
2022/03/04 10:07:42;;;;;;;;;61.25;48.00;;;;;14.03;60.59;101579.91;5083746;28;45429;-63
2022/03/04 10:10:19;;;;;;;;;71.50;55.50;;;;;14.05;60.14;101583.31;5083648;27;45344;-63
2022/03/04 10:12:56;;;;;;;;;68.25;54.00;;;;;14.07;60.37;101576.16;5083422;27;45401;-63
2022/03/04 10:15:23;;;;;;;;;59.00;48.75;;;;;14.10;60.52;101575.97;5083180;27;45283;-63
2022/03/04 10:18:07;;;;;;;;;71.67;55.67;;;;;14.09;60.08;101577.75;5083122;28;45314;-63
2022/03/04 10:20:39;;;;;;;;;75.00;56.33;;;;;14.09;60.14;101577.75;5083372;27;45425;-63
2022/03/04 10:23:31;;;;;;;;;71.50;55.50;;;;;14.09;59.87;101576.91;5083148;27;45363;-63
2022/03/04 10:25:59;;;;;;;;;71.75;52.50;;;;;14.09;59.91;101580.41;5063375;28;45350;-63
2022/03/04 10:28:27;;;;;;;;;67.25;52.00;;;;;14.10;60.14;101584.75;5083349;27;45220;-63
2022/03/04 10:30:54;;;;;;;;;76.00;54.25;;;;;14.12;60.06;101576.72;5083106;27;45322;-63
2022/03/04 10:33:22;;;;;;;;;59.25;49.50;;;;;14.12;59.84;101582.88;5084593;27;46724;-63
2022/03/04 10:36:14;;;;;;;;;66.25;52.00;;;;;14.11;59.69;101583.81;5090527;27;45347;-63
2022/03/04 10:38:41;;;;;;;;;67.50;51.75;;;;;14.11;59.99;101588.25;5093310;27;45333;-63
2022/03/04 10:41:29;;;;;;;;;78.00;57.00;;;;;14.07;59.93;101586.75;5094025;27;45281;-63
2022/03/04 10:43:56;;;;;;;;;66.25;50.00;;;;;14.06;59.73;101579.72;5089066;27;45503;-63
2022/03/04 10:46:22;;;;;;;;;68.25;54.50;;;;;14.04;59.79;101590.41;5082738;28;45376;-63
2022/03/04 10:48:56;;;;;;;;;69.75;54.25;;;;;14.05;59.54;101593.91;5082985;28;45343;-62
2022/03/04 10:51:38;;;;;;;;;68.50;51.00;;;;;14.06;59.71;101593.84;5083265;28;45177;-62
2022/03/04 10:54:15;;;;;;;;;85.00;71.67;;;;;14.06;59.57;101596.50;5082647;27;45422;-63
2022/03/04 10:56:48;;;;;;;;;71.50;55.25;;;;;14.06;59.37;101585.91;5082754;28;45291;-62
2022/03/04 10:59:14;;;;;;;;;61.25;49.00;;;;;14.05;59.57;101594.78;5089814;27;45320;-62
2022/03/04 11:01:46;;;;;;;;;68.00;52.00;;;;;14.08;59.01;101586.66;5102887;27;45492;-62
2022/03/04 11:04:12;;;;;;;;;71.50;54.00;;;;;14.11;59.19;101586.47;5103206;27;45404;-62
2022/03/04 11:06:39;;;;;;;;;70.25;53.25;;;;;14.23;59.28;101582.22;5103063;27;45348;-62
2022/03/04 11:09:04;;;;;;;;;72.00;51.75;;;;;14.28;59.28;101582.78;5103007;27;45435;-62